Terminal Aerodrome Forecast
Issued by NWS

Home | Current Version | Previous Version | Graphics & Text | Print | Product List | Glossary On
Versions: 1 2 3 4 5 6 7 8 9 10 11 12 13 14 15 16 17 18 19 20 21 22
000
FTUS43 KABR 251700
TAFPIR
TAF
KPIR 251727Z 2518/2618 36009KT 1 1/2SM -SN BR FEW017 BKN028 OVC040
     FM252000 35014G22KT 1SM -SN BR BLSN OVC025
     FM260900 34010KT P6SM OVC025=

USA.gov is the U.S. government's official web portal to all federal, state and local government web resources and services.